sensor_id;sensor_type;location;lat;lon;timestamp;temperature;humidity
21662;DHT22;10992;48.170;8.596;2023-08-07T00:02:23;9.10;99.90
21662;DHT22;10992;48.170;8.596;2023-08-07T00:04:50;9.10;99.90
21662;DHT22;10992;48.170;8.596;2023-08-07T00:07:17;9.10;99.90
21662;DHT22;10992;48.170;8.596;2023-08-07T00:09:44;9.10;99.90
21662;DHT22;10992;48.170;8.596;2023-08-07T00:12:11;9.10;99.90
21662;DHT22;10992;48.170;8.596;2023-08-07T00:14:38;9.20;99.90
21662;DHT22;10992;48.170;8.596;2023-08-07T00:17:05;9.10;99.90
21662;DHT22;10992;48.170;8.596;2023-08-07T00:19:33;9.20;99.90
21662;DHT22;10992;48.170;8.596;2023-08-07T00:22:00;9.20;99.90
21662;DHT22;10992;48.170;8.596;2023-08-07T00:24:27;9.20;99.90
21662;DHT22;10992;48.170;8.596;2023-08-07T00:26:54;9.20;99.90
21662;DHT22;10992;48.170;8.596;2023-08-07T00:29:21;9.20;99.90
21662;DHT22;10992;48.170;8.596;2023-08-07T00:31:48;9.30;99.90
21662;DHT22;10992;48.170;8.596;2023-08-07T00:34:15;9.30;99.90
21662;DHT22;10992;48.170;8.596;2023-08-07T00:36:43;9.30;99.90
21662;DHT22;10992;48.170;8.596;2023-08-07T00:39:10;9.30;99.90
21662;DHT22;10992;48.170;8.596;2023-08-07T00:41:39;9.30;99.90
21662;DHT22;10992;48.170;8.596;2023-08-07T00:44:06;9.20;99.90
21662;DHT22;10992;48.170;8.596;2023-08-07T00:46:34;9.30;99.90
21662;DHT22;10992;48.170;8.596;2023-08-07T00:49:01;9.30;99.90
21662;DHT22;10992;48.170;8.596;2023-08-07T00:51:29;9.20;99.90
21662;DHT22;10992;48.170;8.596;2023-08-07T00:53:56;9.20;99.90
21662;DHT22;10992;48.170;8.596;2023-08-07T00:56:24;9.20;99.90
21662;DHT22;10992;48.170;8.596;2023-08-07T00:58:52;9.10;99.90
21662;DHT22;10992;48.170;8.596;2023-08-07T01:01:20;9.00;99.90
21662;DHT22;10992;48.170;8.596;2023-08-07T01:03:46;9.00;99.90
21662;DHT22;10992;48.170;8.596;2023-08-07T01:06:13;9.00;99.90
21662;DHT22;10992;48.170;8.596;2023-08-07T01:08:41;9.00;99.90
21662;DHT22;10992;48.170;8.596;2023-08-07T01:11:33;9.00;99.90
21662;DHT22;10992;48.170;8.596;2023-08-07T01:14:22;9.00;99.90
21662;DHT22;10992;48.170;8.596;2023-08-07T01:17:07;9.10;99.90
21662;DHT22;10992;48.170;8.596;2023-08-07T01:19:36;9.10;99.90
21662;DHT22;10992;48.170;8.596;2023-08-07T01:22:08;9.10;99.90
21662;DHT22;10992;48.170;8.596;2023-08-07T01:24:38;9.20;99.90
21662;DHT22;10992;48.170;8.596;2023-08-07T01:33:10;9.30;99.90
21662;DHT22;10992;48.170;8.596;2023-08-07T01:35:43;9.30;99.90
21662;DHT22;10992;48.170;8.596;2023-08-07T01:38:14;9.30;99.90
21662;DHT22;10992;48.170;8.596;2023-08-07T01:40:42;9.30;99.90
21662;DHT22;10992;48.170;8.596;2023-08-07T01:43:09;9.20;99.90
21662;DHT22;10992;48.170;8.596;2023-08-07T01:45:36;9.20;99.90
21662;DHT22;10992;48.170;8.596;2023-08-07T01:48:03;9.10;99.90
21662;DHT22;10992;48.170;8.596;2023-08-07T01:50:31;9.10;99.90
21662;DHT22;10992;48.170;8.596;2023-08-07T01:52:58;9.00;99.90
21662;DHT22;10992;48.170;8.596;2023-08-07T01:55:25;8.90;99.90
21662;DHT22;10992;48.170;8.596;2023-08-07T01:57:52;8.90;99.90
21662;DHT22;10992;48.170;8.596;2023-08-07T02:00:19;8.80;99.90
21662;DHT22;10992;48.170;8.596;2023-08-07T02:02:46;8.80;99.90
21662;DHT22;10992;48.170;8.596;2023-08-07T02:05:15;8.80;99.90
21662;DHT22;10992;48.170;8.596;2023-08-07T02:07:42;8.80;99.90
21662;DHT22;10992;48.170;8.596;2023-08-07T02:10:09;8.70;99.90
21662;DHT22;10992;48.170;8.596;2023-08-07T02:12:36;8.70;99.90
21662;DHT22;10992;48.170;8.596;2023-08-07T02:15:03;8.60;99.90
21662;DHT22;10992;48.170;8.596;2023-08-07T02:17:30;8.60;99.90
21662;DHT22;10992;48.170;8.596;2023-08-07T02:19:58;8.50;99.90
21662;DHT22;10992;48.170;8.596;2023-08-07T02:22:25;8.50;99.90
21662;DHT22;10992;48.170;8.596;2023-08-07T02:24:52;8.40;99.90
21662;DHT22;10992;48.170;8.596;2023-08-07T02:27:19;8.40;99.90
21662;DHT22;10992;48.170;8.596;2023-08-07T02:29:46;8.30;99.90
21662;DHT22;10992;48.170;8.596;2023-08-07T02:32:13;8.20;99.90
21662;DHT22;10992;48.170;8.596;2023-08-07T02:34:40;8.10;99.90
21662;DHT22;10992;48.170;8.596;2023-08-07T02:37:07;8.10;99.90
21662;DHT22;10992;48.170;8.596;2023-08-07T02:39:35;8.10;99.90
21662;DHT22;10992;48.170;8.596;2023-08-07T02:42:02;8.00;99.90
21662;DHT22;10992;48.170;8.596;2023-08-07T02:44:30;7.90;99.90
21662;DHT22;10992;48.170;8.596;2023-08-07T02:46:56;7.90;99.90
21662;DHT22;10992;48.170;8.596;2023-08-07T02:49:24;7.80;99.90
21662;DHT22;10992;48.170;8.596;2023-08-07T02:51:52;7.80;99.90
21662;DHT22;10992;48.170;8.596;2023-08-07T02:54:18;7.80;99.90
21662;DHT22;10992;48.170;8.596;2023-08-07T02:56:45;7.70;99.90
21662;DHT22;10992;48.170;8.596;2023-08-07T02:59:12;7.70;99.90
21662;DHT22;10992;48.170;8.596;2023-08-07T03:01:39;7.70;99.90
21662;DHT22;10992;48.170;8.596;2023-08-07T03:04:06;7.60;99.90
21662;DHT22;10992;48.170;8.596;2023-08-07T03:06:33;7.70;99.90
21662;DHT22;10992;48.170;8.596;2023-08-07T03:09:00;7.60;99.90
21662;DHT22;10992;48.170;8.596;2023-08-07T03:11:27;7.60;99.90
21662;DHT22;10992;48.170;8.596;2023-08-07T03:13:54;7.60;99.90
21662;DHT22;10992;48.170;8.596;2023-08-07T03:16:21;7.40;99.90
21662;DHT22;10992;48.170;8.596;2023-08-07T03:18:47;7.40;99.90
21662;DHT22;10992;48.170;8.596;2023-08-07T03:21:14;7.40;99.90
21662;DHT22;10992;48.170;8.596;2023-08-07T03:23:41;7.40;99.90
21662;DHT22;10992;48.170;8.596;2023-08-07T03:26:11;7.40;99.90
21662;DHT22;10992;48.170;8.596;2023-08-07T03:28:46;7.50;99.90
21662;DHT22;10992;48.170;8.596;2023-08-07T03:31:14;7.50;99.90
21662;DHT22;10992;48.170;8.596;2023-08-07T03:33:41;7.50;99.90
21662;DHT22;10992;48.170;8.596;2023-08-07T03:36:09;7.50;99.90
21662;DHT22;10992;48.170;8.596;2023-08-07T03:38:37;7.50;99.90
21662;DHT22;10992;48.170;8.596;2023-08-07T03:41:04;7.50;99.90
21662;DHT22;10992;48.170;8.596;2023-08-07T03:43:32;7.60;99.90
21662;DHT22;10992;48.170;8.596;2023-08-07T03:45:59;7.60;99.90
21662;DHT22;10992;48.170;8.596;2023-08-07T03:48:30;7.70;99.90
21662;DHT22;10992;48.170;8.596;2023-08-07T03:51:07;7.70;99.90
21662;DHT22;10992;48.170;8.596;2023-08-07T03:53:45;7.70;99.90
21662;DHT22;10992;48.170;8.596;2023-08-07T03:56:12;7.70;99.90
21662;DHT22;10992;48.170;8.596;2023-08-07T03:58:40;7.90;99.90
21662;DHT22;10992;48.170;8.596;2023-08-07T04:01:08;7.90;99.90
21662;DHT22;10992;48.170;8.596;2023-08-07T04:03:35;7.90;99.90
21662;DHT22;10992;48.170;8.596;2023-08-07T04:06:02;8.00;99.90
21662;DHT22;10992;48.170;8.596;2023-08-07T04:08:32;8.00;99.90
21662;DHT22;10992;48.170;8.596;2023-08-07T04:11:04;8.00;99.90
21662;DHT22;10992;48.170;8.596;2023-08-07T04:13:33;8.00;99.90
21662;DHT22;10992;48.170;8.596;2023-08-07T04:16:01;8.00;99.90
21662;DHT22;10992;48.170;8.596;2023-08-07T04:18:32;8.10;99.90
21662;DHT22;10992;48.170;8.596;2023-08-07T04:21:01;8.10;99.90
21662;DHT22;10992;48.170;8.596;2023-08-07T04:23:28;8.20;99.90
21662;DHT22;10992;48.170;8.596;2023-08-07T04:25:55;8.20;99.90
21662;DHT22;10992;48.170;8.596;2023-08-07T04:28:23;8.20;99.90
21662;DHT22;10992;48.170;8.596;2023-08-07T04:30:51;8.20;99.90
21662;DHT22;10992;48.170;8.596;2023-08-07T04:33:19;8.20;99.90
21662;DHT22;10992;48.170;8.596;2023-08-07T04:35:46;8.20;99.90
21662;DHT22;10992;48.170;8.596;2023-08-07T04:38:14;8.20;99.90
21662;DHT22;10992;48.170;8.596;2023-08-07T04:40:48;8.20;99.90
21662;DHT22;10992;48.170;8.596;2023-08-07T04:43:16;8.20;99.90
21662;DHT22;10992;48.170;8.596;2023-08-07T04:45:43;8.20;99.90
21662;DHT22;10992;48.170;8.596;2023-08-07T04:48:12;8.20;99.90
21662;DHT22;10992;48.170;8.596;2023-08-07T04:50:40;8.30;99.90
21662;DHT22;10992;48.170;8.596;2023-08-07T04:53:07;8.40;99.90
21662;DHT22;10992;48.170;8.596;2023-08-07T04:55:33;8.50;99.90
21662;DHT22;10992;48.170;8.596;2023-08-07T04:58:00;8.70;99.90
21662;DHT22;10992;48.170;8.596;2023-08-07T05:00:27;9.00;99.90
21662;DHT22;10992;48.170;8.596;2023-08-07T05:02:55;9.40;99.90
21662;DHT22;10992;48.170;8.596;2023-08-07T05:05:22;9.70;99.90
21662;DHT22;10992;48.170;8.596;2023-08-07T05:07:50;9.90;99.90
21662;DHT22;10992;48.170;8.596;2023-08-07T05:10:18;10.10;99.90
21662;DHT22;10992;48.170;8.596;2023-08-07T05:12:45;10.20;99.90
21662;DHT22;10992;48.170;8.596;2023-08-07T05:15:12;10.10;99.90
21662;DHT22;10992;48.170;8.596;2023-08-07T05:17:39;10.10;99.90
21662;DHT22;10992;48.170;8.596;2023-08-07T05:20:06;10.20;99.90
21662;DHT22;10992;48.170;8.596;2023-08-07T05:22:34;10.40;99.90
21662;DHT22;10992;48.170;8.596;2023-08-07T05:25:01;10.80;99.90
21662;DHT22;10992;48.170;8.596;2023-08-07T05:27:28;10.70;99.90
21662;DHT22;10992;48.170;8.596;2023-08-07T05:29:55;10.50;99.90
21662;DHT22;10992;48.170;8.596;2023-08-07T05:32:22;10.20;99.90
21662;DHT22;10992;48.170;8.596;2023-08-07T05:34:49;10.10;99.90
21662;DHT22;10992;48.170;8.596;2023-08-07T05:37:17;10.00;99.90
21662;DHT22;10992;48.170;8.596;2023-08-07T05:39:44;10.20;99.90
21662;DHT22;10992;48.170;8.596;2023-08-07T05:42:11;10.50;99.90
21662;DHT22;10992;48.170;8.596;2023-08-07T05:44:39;10.90;99.90
21662;DHT22;10992;48.170;8.596;2023-08-07T05:47:06;11.70;99.90
21662;DHT22;10992;48.170;8.596;2023-08-07T05:49:34;12.20;99.90
21662;DHT22;10992;48.170;8.596;2023-08-07T05:52:00;12.80;99.90
21662;DHT22;10992;48.170;8.596;2023-08-07T05:54:27;14.50;99.90
21662;DHT22;10992;48.170;8.596;2023-08-07T05:56:55;16.10;99.90
21662;DHT22;10992;48.170;8.596;2023-08-07T05:59:22;16.10;99.90
21662;DHT22;10992;48.170;8.596;2023-08-07T06:01:48;15.90;99.90
21662;DHT22;10992;48.170;8.596;2023-08-07T06:04:15;16.80;99.90
21662;DHT22;10992;48.170;8.596;2023-08-07T06:06:42;18.50;99.90
21662;DHT22;10992;48.170;8.596;2023-08-07T06:09:09;18.00;99.90
21662;DHT22;10992;48.170;8.596;2023-08-07T06:11:36;16.50;99.90
21662;DHT22;10992;48.170;8.596;2023-08-07T06:14:03;14.90;99.90
21662;DHT22;10992;48.170;8.596;2023-08-07T06:16:30;14.00;99.90
21662;DHT22;10992;48.170;8.596;2023-08-07T06:18:58;13.30;99.90
21662;DHT22;10992;48.170;8.596;2023-08-07T06:21:25;12.70;99.90
21662;DHT22;10992;48.170;8.596;2023-08-07T06:23:52;12.40;99.90
21662;DHT22;10992;48.170;8.596;2023-08-07T06:26:19;12.20;99.90
21662;DHT22;10992;48.170;8.596;2023-08-07T06:28:46;12.20;99.90
21662;DHT22;10992;48.170;8.596;2023-08-07T06:31:13;12.20;99.90
21662;DHT22;10992;48.170;8.596;2023-08-07T06:33:40;12.00;99.90
21662;DHT22;10992;48.170;8.596;2023-08-07T06:36:07;12.00;99.90
21662;DHT22;10992;48.170;8.596;2023-08-07T06:41:05;11.70;99.90
21662;DHT22;10992;48.170;8.596;2023-08-07T06:43:32;11.70;99.90
21662;DHT22;10992;48.170;8.596;2023-08-07T06:45:59;11.70;99.90
21662;DHT22;10992;48.170;8.596;2023-08-07T06:48:26;11.60;99.90
21662;DHT22;10992;48.170;8.596;2023-08-07T06:50:53;11.70;99.90
21662;DHT22;10992;48.170;8.596;2023-08-07T06:53:20;11.70;99.90
21662;DHT22;10992;48.170;8.596;2023-08-07T06:55:47;11.90;99.90
21662;DHT22;10992;48.170;8.596;2023-08-07T06:58:14;12.00;99.90
21662;DHT22;10992;48.170;8.596;2023-08-07T07:00:40;12.10;99.90
21662;DHT22;10992;48.170;8.596;2023-08-07T07:03:07;12.10;99.90
21662;DHT22;10992;48.170;8.596;2023-08-07T07:05:36;12.20;99.90
21662;DHT22;10992;48.170;8.596;2023-08-07T07:08:03;12.30;99.90
21662;DHT22;10992;48.170;8.596;2023-08-07T07:10:30;12.30;99.90
21662;DHT22;10992;48.170;8.596;2023-08-07T07:12:57;12.30;99.90
21662;DHT22;10992;48.170;8.596;2023-08-07T07:15:24;12.30;99.90
21662;DHT22;10992;48.170;8.596;2023-08-07T07:17:51;12.20;99.90
21662;DHT22;10992;48.170;8.596;2023-08-07T07:20:18;12.10;99.90
21662;DHT22;10992;48.170;8.596;2023-08-07T07:22:45;12.00;99.90
21662;DHT22;10992;48.170;8.596;2023-08-07T07:25:12;11.90;99.90
21662;DHT22;10992;48.170;8.596;2023-08-07T07:27:39;11.80;99.90
21662;DHT22;10992;48.170;8.596;2023-08-07T07:30:07;11.80;99.90
21662;DHT22;10992;48.170;8.596;2023-08-07T07:32:34;11.60;99.90
21662;DHT22;10992;48.170;8.596;2023-08-07T07:35:01;11.50;99.90
21662;DHT22;10992;48.170;8.596;2023-08-07T07:37:30;11.40;99.90
21662;DHT22;10992;48.170;8.596;2023-08-07T07:39:57;11.40;99.90
21662;DHT22;10992;48.170;8.596;2023-08-07T07:42:24;11.50;99.90
21662;DHT22;10992;48.170;8.596;2023-08-07T07:44:51;11.70;99.90
21662;DHT22;10992;48.170;8.596;2023-08-07T07:47:18;11.80;99.90
21662;DHT22;10992;48.170;8.596;2023-08-07T07:49:46;11.80;99.90
21662;DHT22;10992;48.170;8.596;2023-08-07T07:52:16;11.80;99.90
21662;DHT22;10992;48.170;8.596;2023-08-07T07:54:43;11.80;99.90
21662;DHT22;10992;48.170;8.596;2023-08-07T07:57:10;11.80;99.90
21662;DHT22;10992;48.170;8.596;2023-08-07T07:59:37;11.80;99.90
21662;DHT22;10992;48.170;8.596;2023-08-07T08:02:04;11.90;99.90
21662;DHT22;10992;48.170;8.596;2023-08-07T08:04:31;12.00;99.90
21662;DHT22;10992;48.170;8.596;2023-08-07T08:06:58;12.20;99.90
21662;DHT22;10992;48.170;8.596;2023-08-07T08:09:26;12.30;99.90
21662;DHT22;10992;48.170;8.596;2023-08-07T08:11:53;12.30;99.90
21662;DHT22;10992;48.170;8.596;2023-08-07T08:14:20;12.40;99.90
21662;DHT22;10992;48.170;8.596;2023-08-07T08:16:47;12.40;99.90
21662;DHT22;10992;48.170;8.596;2023-08-07T08:19:14;12.60;99.90
21662;DHT22;10992;48.170;8.596;2023-08-07T08:21:43;12.90;99.90
21662;DHT22;10992;48.170;8.596;2023-08-07T08:24:10;13.10;99.90
21662;DHT22;10992;48.170;8.596;2023-08-07T08:26:37;13.50;99.90
21662;DHT22;10992;48.170;8.596;2023-08-07T08:29:06;13.60;99.90
21662;DHT22;10992;48.170;8.596;2023-08-07T08:31:33;13.50;99.90
21662;DHT22;10992;48.170;8.596;2023-08-07T08:34:00;13.50;99.90
21662;DHT22;10992;48.170;8.596;2023-08-07T08:36:27;13.60;99.90
21662;DHT22;10992;48.170;8.596;2023-08-07T08:38:54;13.90;99.90
21662;DHT22;10992;48.170;8.596;2023-08-07T08:41:21;13.80;99.90
21662;DHT22;10992;48.170;8.596;2023-08-07T08:43:49;13.90;99.90
21662;DHT22;10992;48.170;8.596;2023-08-07T08:46:19;14.20;99.90
21662;DHT22;10992;48.170;8.596;2023-08-07T08:48:51;15.10;99.90
21662;DHT22;10992;48.170;8.596;2023-08-07T08:51:19;15.10;99.90
21662;DHT22;10992;48.170;8.596;2023-08-07T08:53:48;16.10;99.90
21662;DHT22;10992;48.170;8.596;2023-08-07T08:56:16;16.30;99.90
21662;DHT22;10992;48.170;8.596;2023-08-07T08:58:43;16.10;99.90
21662;DHT22;10992;48.170;8.596;2023-08-07T09:01:11;15.80;99.90
21662;DHT22;10992;48.170;8.596;2023-08-07T09:03:39;15.40;99.90
21662;DHT22;10992;48.170;8.596;2023-08-07T09:06:06;14.90;99.90
21662;DHT22;10992;48.170;8.596;2023-08-07T09:08:34;14.30;99.90
21662;DHT22;10992;48.170;8.596;2023-08-07T09:11:02;13.70;99.90
21662;DHT22;10992;48.170;8.596;2023-08-07T09:13:30;14.10;99.90
21662;DHT22;10992;48.170;8.596;2023-08-07T09:16:00;14.40;99.90
21662;DHT22;10992;48.170;8.596;2023-08-07T09:18:28;14.40;99.90
21662;DHT22;10992;48.170;8.596;2023-08-07T09:20:56;14.50;99.90
21662;DHT22;10992;48.170;8.596;2023-08-07T09:23:24;14.40;99.90
21662;DHT22;10992;48.170;8.596;2023-08-07T09:26:04;14.30;99.90
21662;DHT22;10992;48.170;8.596;2023-08-07T09:28:32;14.10;99.90
21662;DHT22;10992;48.170;8.596;2023-08-07T09:30:59;13.70;99.90
21662;DHT22;10992;48.170;8.596;2023-08-07T09:33:29;13.80;99.90
21662;DHT22;10992;48.170;8.596;2023-08-07T09:35:58;14.10;99.90
21662;DHT22;10992;48.170;8.596;2023-08-07T09:38:32;14.20;99.90
21662;DHT22;10992;48.170;8.596;2023-08-07T09:41:04;14.50;99.90
21662;DHT22;10992;48.170;8.596;2023-08-07T09:43:36;14.60;99.90
21662;DHT22;10992;48.170;8.596;2023-08-07T09:46:05;14.90;99.90
21662;DHT22;10992;48.170;8.596;2023-08-07T09:48:39;16.00;99.90
21662;DHT22;10992;48.170;8.596;2023-08-07T09:51:10;16.20;99.90
21662;DHT22;10992;48.170;8.596;2023-08-07T09:53:38;16.10;99.90
21662;DHT22;10992;48.170;8.596;2023-08-07T09:56:06;16.00;99.90
21662;DHT22;10992;48.170;8.596;2023-08-07T09:58:33;15.80;99.90
21662;DHT22;10992;48.170;8.596;2023-08-07T10:01:03;15.80;99.90
21662;DHT22;10992;48.170;8.596;2023-08-07T10:03:31;15.60;99.90
21662;DHT22;10992;48.170;8.596;2023-08-07T10:05:59;15.90;99.90
21662;DHT22;10992;48.170;8.596;2023-08-07T10:08:28;15.90;99.90
21662;DHT22;10992;48.170;8.596;2023-08-07T10:10:55;15.70;99.90
21662;DHT22;10992;48.170;8.596;2023-08-07T10:13:22;15.10;99.90
21662;DHT22;10992;48.170;8.596;2023-08-07T10:16:04;14.70;99.90
21662;DHT22;10992;48.170;8.596;2023-08-07T10:18:32;14.80;99.90
21662;DHT22;10992;48.170;8.596;2023-08-07T10:21:01;15.10;99.90
21662;DHT22;10992;48.170;8.596;2023-08-07T10:23:28;15.60;99.90
21662;DHT22;10992;48.170;8.596;2023-08-07T10:25:56;16.10;99.90
21662;DHT22;10992;48.170;8.596;2023-08-07T10:28:24;17.00;99.90
21662;DHT22;10992;48.170;8.596;2023-08-07T10:30:57;18.30;99.90
21662;DHT22;10992;48.170;8.596;2023-08-07T10:33:24;18.20;99.90
21662;DHT22;10992;48.170;8.596;2023-08-07T10:35:52;18.00;99.90
21662;DHT22;10992;48.170;8.596;2023-08-07T10:38:22;17.40;99.90
21662;DHT22;10992;48.170;8.596;2023-08-07T10:41:09;16.10;99.90
21662;DHT22;10992;48.170;8.596;2023-08-07T10:43:40;15.50;99.90
21662;DHT22;10992;48.170;8.596;2023-08-07T10:46:12;15.10;99.90
21662;DHT22;10992;48.170;8.596;2023-08-07T10:48:42;14.80;99.90
21662;DHT22;10992;48.170;8.596;2023-08-07T10:51:16;14.60;99.90
21662;DHT22;10992;48.170;8.596;2023-08-07T10:53:48;14.60;99.90
21662;DHT22;10992;48.170;8.596;2023-08-07T10:56:29;14.90;99.90
21662;DHT22;10992;48.170;8.596;2023-08-07T10:58:56;15.30;99.90
21662;DHT22;10992;48.170;8.596;2023-08-07T11:03:55;15.70;99.90
21662;DHT22;10992;48.170;8.596;2023-08-07T11:06:25;15.60;99.90
21662;DHT22;10992;48.170;8.596;2023-08-07T11:08:55;16.00;99.90
21662;DHT22;10992;48.170;8.596;2023-08-07T11:11:22;15.80;99.90
21662;DHT22;10992;48.170;8.596;2023-08-07T11:13:49;15.90;99.90
21662;DHT22;10992;48.170;8.596;2023-08-07T11:16:17;15.90;99.90
21662;DHT22;10992;48.170;8.596;2023-08-07T11:18:49;15.90;99.90
21662;DHT22;10992;48.170;8.596;2023-08-07T11:21:16;15.80;99.90
21662;DHT22;10992;48.170;8.596;2023-08-07T11:23:43;16.20;99.90
21662;DHT22;10992;48.170;8.596;2023-08-07T11:26:11;16.30;99.90
21662;DHT22;10992;48.170;8.596;2023-08-07T11:28:38;16.40;99.90
21662;DHT22;10992;48.170;8.596;2023-08-07T11:31:06;16.40;99.90
21662;DHT22;10992;48.170;8.596;2023-08-07T11:33:33;16.50;99.90
21662;DHT22;10992;48.170;8.596;2023-08-07T11:36:00;16.80;99.90
21662;DHT22;10992;48.170;8.596;2023-08-07T11:38:37;17.30;99.90
21662;DHT22;10992;48.170;8.596;2023-08-07T11:41:13;18.40;99.90
21662;DHT22;10992;48.170;8.596;2023-08-07T11:43:46;19.90;99.90
21662;DHT22;10992;48.170;8.596;2023-08-07T11:46:15;20.00;99.90
21662;DHT22;10992;48.170;8.596;2023-08-07T11:48:44;19.60;99.90
21662;DHT22;10992;48.170;8.596;2023-08-07T11:51:11;19.60;99.90
21662;DHT22;10992;48.170;8.596;2023-08-07T11:53:40;19.30;99.90
21662;DHT22;10992;48.170;8.596;2023-08-07T11:56:12;19.20;99.90
21662;DHT22;10992;48.170;8.596;2023-08-07T11:58:44;18.70;99.90
21662;DHT22;10992;48.170;8.596;2023-08-07T12:01:17;18.70;99.90
21662;DHT22;10992;48.170;8.596;2023-08-07T12:06:25;18.50;99.90
21662;DHT22;10992;48.170;8.596;2023-08-07T12:08:56;18.30;99.90
21662;DHT22;10992;48.170;8.596;2023-08-07T12:11:24;18.90;99.90
21662;DHT22;10992;48.170;8.596;2023-08-07T12:13:51;18.30;99.90
21662;DHT22;10992;48.170;8.596;2023-08-07T12:16:19;18.20;99.90
21662;DHT22;10992;48.170;8.596;2023-08-07T12:18:48;18.80;99.90
21662;DHT22;10992;48.170;8.596;2023-08-07T12:21:17;19.10;99.90
21662;DHT22;10992;48.170;8.596;2023-08-07T12:23:46;18.90;99.90
21662;DHT22;10992;48.170;8.596;2023-08-07T12:26:15;19.10;99.90
21662;DHT22;10992;48.170;8.596;2023-08-07T12:28:43;20.00;99.90
21662;DHT22;10992;48.170;8.596;2023-08-07T12:31:10;20.30;99.90
21662;DHT22;10992;48.170;8.596;2023-08-07T12:33:37;19.80;99.90
21662;DHT22;10992;48.170;8.596;2023-08-07T12:36:04;19.70;99.90
21662;DHT22;10992;48.170;8.596;2023-08-07T12:38:31;20.10;99.90
21662;DHT22;10992;48.170;8.596;2023-08-07T12:40:57;20.90;99.90
21662;DHT22;10992;48.170;8.596;2023-08-07T12:43:25;20.00;99.90
21662;DHT22;10992;48.170;8.596;2023-08-07T12:45:52;19.70;99.90
21662;DHT22;10992;48.170;8.596;2023-08-07T12:48:39;20.10;99.90
21662;DHT22;10992;48.170;8.596;2023-08-07T12:51:06;20.20;99.90
21662;DHT22;10992;48.170;8.596;2023-08-07T12:53:33;20.00;99.90
21662;DHT22;10992;48.170;8.596;2023-08-07T12:56:00;19.20;99.90
21662;DHT22;10992;48.170;8.596;2023-08-07T12:58:28;18.70;99.90
21662;DHT22;10992;48.170;8.596;2023-08-07T13:00:56;18.60;99.90
21662;DHT22;10992;48.170;8.596;2023-08-07T13:03:23;18.70;99.90
21662;DHT22;10992;48.170;8.596;2023-08-07T13:05:50;19.50;99.90
21662;DHT22;10992;48.170;8.596;2023-08-07T13:08:17;19.70;99.90
21662;DHT22;10992;48.170;8.596;2023-08-07T13:10:44;19.40;99.90
21662;DHT22;10992;48.170;8.596;2023-08-07T13:13:14;19.00;99.90
21662;DHT22;10992;48.170;8.596;2023-08-07T13:15:41;18.40;99.90
21662;DHT22;10992;48.170;8.596;2023-08-07T13:18:08;18.20;99.90
21662;DHT22;10992;48.170;8.596;2023-08-07T13:20:35;17.90;99.90
21662;DHT22;10992;48.170;8.596;2023-08-07T13:23:02;17.60;99.90
21662;DHT22;10992;48.170;8.596;2023-08-07T13:25:31;17.50;99.90
21662;DHT22;10992;48.170;8.596;2023-08-07T13:27:58;17.70;99.90
21662;DHT22;10992;48.170;8.596;2023-08-07T13:30:25;17.80;99.90
21662;DHT22;10992;48.170;8.596;2023-08-07T13:32:54;18.40;99.90
21662;DHT22;10992;48.170;8.596;2023-08-07T13:35:20;18.90;99.90
21662;DHT22;10992;48.170;8.596;2023-08-07T13:37:48;19.10;99.90
21662;DHT22;10992;48.170;8.596;2023-08-07T13:40:15;18.90;99.90
21662;DHT22;10992;48.170;8.596;2023-08-07T13:42:42;18.50;99.90
21662;DHT22;10992;48.170;8.596;2023-08-07T13:45:12;18.00;99.90
21662;DHT22;10992;48.170;8.596;2023-08-07T13:47:40;17.70;99.90
21662;DHT22;10992;48.170;8.596;2023-08-07T13:50:07;17.70;99.90
21662;DHT22;10992;48.170;8.596;2023-08-07T13:52:36;17.60;99.90
21662;DHT22;10992;48.170;8.596;2023-08-07T13:55:03;17.90;99.90
21662;DHT22;10992;48.170;8.596;2023-08-07T13:57:30;18.40;99.90
21662;DHT22;10992;48.170;8.596;2023-08-07T13:59:57;18.90;99.90
21662;DHT22;10992;48.170;8.596;2023-08-07T14:02:24;19.50;99.90
21662;DHT22;10992;48.170;8.596;2023-08-07T14:04:51;19.80;99.90
21662;DHT22;10992;48.170;8.596;2023-08-07T14:07:18;19.90;99.90
21662;DHT22;10992;48.170;8.596;2023-08-07T14:09:44;19.60;99.90
21662;DHT22;10992;48.170;8.596;2023-08-07T14:12:12;19.80;99.90
21662;DHT22;10992;48.170;8.596;2023-08-07T14:14:38;20.40;99.90
21662;DHT22;10992;48.170;8.596;2023-08-07T14:17:05;20.50;99.90
21662;DHT22;10992;48.170;8.596;2023-08-07T14:19:32;19.90;99.90
21662;DHT22;10992;48.170;8.596;2023-08-07T14:22:00;19.70;99.90
21662;DHT22;10992;48.170;8.596;2023-08-07T14:24:27;19.70;99.90
21662;DHT22;10992;48.170;8.596;2023-08-07T14:26:54;19.60;99.90
21662;DHT22;10992;48.170;8.596;2023-08-07T14:29:21;19.60;99.90
21662;DHT22;10992;48.170;8.596;2023-08-07T14:31:48;19.20;99.90
21662;DHT22;10992;48.170;8.596;2023-08-07T14:34:15;18.70;99.90
21662;DHT22;10992;48.170;8.596;2023-08-07T14:36:41;18.20;99.90
21662;DHT22;10992;48.170;8.596;2023-08-07T14:39:08;18.00;99.90
21662;DHT22;10992;48.170;8.596;2023-08-07T14:41:35;18.50;99.90
21662;DHT22;10992;48.170;8.596;2023-08-07T14:44:02;19.40;99.90
21662;DHT22;10992;48.170;8.596;2023-08-07T14:46:29;19.70;99.90
21662;DHT22;10992;48.170;8.596;2023-08-07T14:48:56;20.00;99.90
21662;DHT22;10992;48.170;8.596;2023-08-07T14:51:23;20.00;99.90
21662;DHT22;10992;48.170;8.596;2023-08-07T14:53:50;20.00;99.90
21662;DHT22;10992;48.170;8.596;2023-08-07T14:56:17;20.10;99.90
21662;DHT22;10992;48.170;8.596;2023-08-07T14:58:43;20.30;99.90
21662;DHT22;10992;48.170;8.596;2023-08-07T15:01:10;20.40;99.90
21662;DHT22;10992;48.170;8.596;2023-08-07T15:03:37;20.50;99.90
21662;DHT22;10992;48.170;8.596;2023-08-07T15:06:04;21.00;99.90
21662;DHT22;10992;48.170;8.596;2023-08-07T15:08:32;20.90;99.90
21662;DHT22;10992;48.170;8.596;2023-08-07T15:10:59;20.80;99.90
21662;DHT22;10992;48.170;8.596;2023-08-07T15:13:25;20.60;99.90
21662;DHT22;10992;48.170;8.596;2023-08-07T15:15:52;20.20;99.90
21662;DHT22;10992;48.170;8.596;2023-08-07T15:18:19;19.60;99.90
21662;DHT22;10992;48.170;8.596;2023-08-07T15:20:48;18.90;99.90
21662;DHT22;10992;48.170;8.596;2023-08-07T15:23:15;18.50;99.90
21662;DHT22;10992;48.170;8.596;2023-08-07T15:25:43;18.40;99.90
21662;DHT22;10992;48.170;8.596;2023-08-07T15:28:11;18.30;99.90
21662;DHT22;10992;48.170;8.596;2023-08-07T15:30:38;18.40;99.90
21662;DHT22;10992;48.170;8.596;2023-08-07T15:33:06;18.80;99.90
21662;DHT22;10992;48.170;8.596;2023-08-07T15:35:33;18.70;99.90
21662;DHT22;10992;48.170;8.596;2023-08-07T15:38:00;18.60;99.90
21662;DHT22;10992;48.170;8.596;2023-08-07T15:40:27;18.90;99.90
21662;DHT22;10992;48.170;8.596;2023-08-07T15:42:54;18.90;99.90
21662;DHT22;10992;48.170;8.596;2023-08-07T15:45:21;19.20;99.90
21662;DHT22;10992;48.170;8.596;2023-08-07T15:47:48;19.10;99.90
21662;DHT22;10992;48.170;8.596;2023-08-07T15:50:15;18.60;99.90
21662;DHT22;10992;48.170;8.596;2023-08-07T15:52:42;18.10;99.90
21662;DHT22;10992;48.170;8.596;2023-08-07T15:55:10;17.70;99.90